sensor_id;sensor_type;location;lat;lon;timestamp;temperature;humidity
74153;DHT22;62505;46.070;14.492;2023-06-10T00:00:23;23.10;79.30
74153;DHT22;62505;46.070;14.492;2023-06-10T00:02:50;23.20;79.40
74153;DHT22;62505;46.070;14.492;2023-06-10T00:05:17;23.20;79.30
74153;DHT22;62505;46.070;14.492;2023-06-10T00:07:46;23.10;79.40
74153;DHT22;62505;46.070;14.492;2023-06-10T00:10:13;23.10;79.30
74153;DHT22;62505;46.070;14.492;2023-06-10T00:12:42;23.20;79.30
74153;DHT22;62505;46.070;14.492;2023-06-10T00:15:10;23.20;79.40
74153;DHT22;62505;46.070;14.492;2023-06-10T00:17:37;23.10;79.30
74153;DHT22;62505;46.070;14.492;2023-06-10T00:20:06;23.20;79.30
74153;DHT22;62505;46.070;14.492;2023-06-10T00:22:34;23.20;79.30
74153;DHT22;62505;46.070;14.492;2023-06-10T00:25:01;23.10;79.20
74153;DHT22;62505;46.070;14.492;2023-06-10T00:27:29;23.10;79.30
74153;DHT22;62505;46.070;14.492;2023-06-10T00:30:02;23.10;79.20
74153;DHT22;62505;46.070;14.492;2023-06-10T00:32:32;23.10;79.20
74153;DHT22;62505;46.070;14.492;2023-06-10T00:34:59;23.20;79.20
74153;DHT22;62505;46.070;14.492;2023-06-10T00:37:26;23.10;79.00
74153;DHT22;62505;46.070;14.492;2023-06-10T00:39:54;23.10;79.10
74153;DHT22;62505;46.070;14.492;2023-06-10T00:42:21;23.20;79.10
74153;DHT22;62505;46.070;14.492;2023-06-10T00:44:50;23.10;79.00
74153;DHT22;62505;46.070;14.492;2023-06-10T00:47:18;23.10;78.90
74153;DHT22;62505;46.070;14.492;2023-06-10T00:49:46;23.10;78.90
74153;DHT22;62505;46.070;14.492;2023-06-10T00:52:14;23.10;78.90
74153;DHT22;62505;46.070;14.492;2023-06-10T00:54:41;23.10;78.90
74153;DHT22;62505;46.070;14.492;2023-06-10T00:57:08;23.10;78.80
74153;DHT22;62505;46.070;14.492;2023-06-10T00:59:36;23.10;78.80
74153;DHT22;62505;46.070;14.492;2023-06-10T01:02:03;23.20;78.70
74153;DHT22;62505;46.070;14.492;2023-06-10T01:04:32;23.20;78.90
74153;DHT22;62505;46.070;14.492;2023-06-10T01:07:05;23.20;78.70
74153;DHT22;62505;46.070;14.492;2023-06-10T01:09:42;23.10;79.40
74153;DHT22;62505;46.070;14.492;2023-06-10T01:12:16;23.10;78.60
74153;DHT22;62505;46.070;14.492;2023-06-10T01:14:45;23.10;79.30
74153;DHT22;62505;46.070;14.492;2023-06-10T01:17:14;23.10;78.50
74153;DHT22;62505;46.070;14.492;2023-06-10T01:19:52;23.10;78.40
74153;DHT22;62505;46.070;14.492;2023-06-10T01:22:22;23.10;78.40
74153;DHT22;62505;46.070;14.492;2023-06-10T01:24:49;23.10;78.40
74153;DHT22;62505;46.070;14.492;2023-06-10T01:27:19;23.10;78.30
74153;DHT22;62505;46.070;14.492;2023-06-10T01:29:52;23.10;78.40
74153;DHT22;62505;46.070;14.492;2023-06-10T01:32:26;23.10;78.30
74153;DHT22;62505;46.070;14.492;2023-06-10T01:34:56;23.10;78.30
74153;DHT22;62505;46.070;14.492;2023-06-10T01:37:26;23.10;78.20
74153;DHT22;62505;46.070;14.492;2023-06-10T01:39:55;23.10;78.20
74153;DHT22;62505;46.070;14.492;2023-06-10T01:42:23;23.10;78.20
74153;DHT22;62505;46.070;14.492;2023-06-10T01:44:51;23.10;78.10
74153;DHT22;62505;46.070;14.492;2023-06-10T01:47:17;23.10;78.10
74153;DHT22;62505;46.070;14.492;2023-06-10T01:49:45;23.10;78.00
74153;DHT22;62505;46.070;14.492;2023-06-10T01:52:12;23.10;77.90
74153;DHT22;62505;46.070;14.492;2023-06-10T01:54:40;23.10;77.90
74153;DHT22;62505;46.070;14.492;2023-06-10T01:57:07;23.10;77.90
74153;DHT22;62505;46.070;14.492;2023-06-10T01:59:34;23.10;77.80
74153;DHT22;62505;46.070;14.492;2023-06-10T02:02:02;23.10;77.70
74153;DHT22;62505;46.070;14.492;2023-06-10T02:04:29;23.10;77.60
74153;DHT22;62505;46.070;14.492;2023-06-10T02:06:56;23.10;77.60
74153;DHT22;62505;46.070;14.492;2023-06-10T02:09:23;23.00;77.40
74153;DHT22;62505;46.070;14.492;2023-06-10T02:11:51;23.10;77.40
74153;DHT22;62505;46.070;14.492;2023-06-10T02:14:18;23.10;77.30
74153;DHT22;62505;46.070;14.492;2023-06-10T02:16:45;23.10;77.20
74153;DHT22;62505;46.070;14.492;2023-06-10T02:19:12;23.10;77.20
74153;DHT22;62505;46.070;14.492;2023-06-10T02:21:39;23.10;77.10
74153;DHT22;62505;46.070;14.492;2023-06-10T02:24:06;23.10;77.00
74153;DHT22;62505;46.070;14.492;2023-06-10T02:26:33;23.00;76.80
74153;DHT22;62505;46.070;14.492;2023-06-10T02:29:02;23.10;76.90
74153;DHT22;62505;46.070;14.492;2023-06-10T02:31:29;23.00;76.70
74153;DHT22;62505;46.070;14.492;2023-06-10T02:33:55;23.00;76.70
74153;DHT22;62505;46.070;14.492;2023-06-10T02:36:22;23.00;76.60
74153;DHT22;62505;46.070;14.492;2023-06-10T02:38:49;23.00;76.50
74153;DHT22;62505;46.070;14.492;2023-06-10T02:41:16;23.10;76.50
74153;DHT22;62505;46.070;14.492;2023-06-10T02:43:43;23.10;76.40
74153;DHT22;62505;46.070;14.492;2023-06-10T02:46:11;23.10;76.50
74153;DHT22;62505;46.070;14.492;2023-06-10T02:48:41;23.00;76.40
74153;DHT22;62505;46.070;14.492;2023-06-10T02:51:09;23.00;76.20
74153;DHT22;62505;46.070;14.492;2023-06-10T02:53:36;23.00;76.20
74153;DHT22;62505;46.070;14.492;2023-06-10T02:56:03;23.10;76.20
74153;DHT22;62505;46.070;14.492;2023-06-10T02:58:30;23.00;76.10
74153;DHT22;62505;46.070;14.492;2023-06-10T03:00:57;23.00;76.00
74153;DHT22;62505;46.070;14.492;2023-06-10T03:03:25;23.10;76.10
74153;DHT22;62505;46.070;14.492;2023-06-10T03:05:53;23.10;76.00
74153;DHT22;62505;46.070;14.492;2023-06-10T03:08:20;23.10;76.00
74153;DHT22;62505;46.070;14.492;2023-06-10T03:10:46;23.10;75.90
74153;DHT22;62505;46.070;14.492;2023-06-10T03:13:13;23.00;75.70
74153;DHT22;62505;46.070;14.492;2023-06-10T03:15:41;23.00;75.70
74153;DHT22;62505;46.070;14.492;2023-06-10T03:18:08;23.00;75.60
74153;DHT22;62505;46.070;14.492;2023-06-10T03:20:36;23.00;75.60
74153;DHT22;62505;46.070;14.492;2023-06-10T03:23:03;23.00;75.60
74153;DHT22;62505;46.070;14.492;2023-06-10T03:25:31;23.00;75.60
74153;DHT22;62505;46.070;14.492;2023-06-10T03:27:58;23.00;75.50
74153;DHT22;62505;46.070;14.492;2023-06-10T03:30:25;23.00;75.50
74153;DHT22;62505;46.070;14.492;2023-06-10T03:32:52;23.00;75.50
74153;DHT22;62505;46.070;14.492;2023-06-10T03:35:19;23.10;76.20
74153;DHT22;62505;46.070;14.492;2023-06-10T03:37:47;23.00;75.40
74153;DHT22;62505;46.070;14.492;2023-06-10T03:40:14;23.00;75.40
74153;DHT22;62505;46.070;14.492;2023-06-10T03:42:41;23.00;75.40
74153;DHT22;62505;46.070;14.492;2023-06-10T03:45:10;23.00;75.40
74153;DHT22;62505;46.070;14.492;2023-06-10T03:47:37;23.00;75.30
74153;DHT22;62505;46.070;14.492;2023-06-10T03:50:07;23.00;75.30
74153;DHT22;62505;46.070;14.492;2023-06-10T03:52:34;23.00;75.30
74153;DHT22;62505;46.070;14.492;2023-06-10T03:55:03;23.00;75.20
74153;DHT22;62505;46.070;14.492;2023-06-10T03:57:30;23.00;75.20
74153;DHT22;62505;46.070;14.492;2023-06-10T03:59:58;23.00;75.20
74153;DHT22;62505;46.070;14.492;2023-06-10T04:02:25;23.00;75.20
74153;DHT22;62505;46.070;14.492;2023-06-10T04:04:52;23.00;75.20
74153;DHT22;62505;46.070;14.492;2023-06-10T04:07:19;23.00;75.10
74153;DHT22;62505;46.070;14.492;2023-06-10T04:09:46;23.00;75.10
74153;DHT22;62505;46.070;14.492;2023-06-10T04:12:15;23.00;75.10
74153;DHT22;62505;46.070;14.492;2023-06-10T04:14:42;23.00;75.00
74153;DHT22;62505;46.070;14.492;2023-06-10T04:17:09;23.00;75.00
74153;DHT22;62505;46.070;14.492;2023-06-10T04:19:36;23.00;75.00
74153;DHT22;62505;46.070;14.492;2023-06-10T04:22:03;23.00;75.00
74153;DHT22;62505;46.070;14.492;2023-06-10T04:24:30;23.00;75.00
74153;DHT22;62505;46.070;14.492;2023-06-10T04:26:57;23.00;75.00
74153;DHT22;62505;46.070;14.492;2023-06-10T04:29:25;23.00;74.90
74153;DHT22;62505;46.070;14.492;2023-06-10T04:31:52;23.00;74.90
74153;DHT22;62505;46.070;14.492;2023-06-10T04:34:19;23.00;75.00
74153;DHT22;62505;46.070;14.492;2023-06-10T04:36:46;23.00;74.90
74153;DHT22;62505;46.070;14.492;2023-06-10T04:39:13;23.00;74.90
74153;DHT22;62505;46.070;14.492;2023-06-10T04:41:42;23.00;74.80
74153;DHT22;62505;46.070;14.492;2023-06-10T04:44:09;23.00;74.80
74153;DHT22;62505;46.070;14.492;2023-06-10T04:46:37;23.00;74.80
74153;DHT22;62505;46.070;14.492;2023-06-10T04:49:04;23.00;74.80
74153;DHT22;62505;46.070;14.492;2023-06-10T04:51:31;23.00;74.80
74153;DHT22;62505;46.070;14.492;2023-06-10T04:53:58;23.00;74.80
74153;DHT22;62505;46.070;14.492;2023-06-10T04:56:28;23.00;74.70
74153;DHT22;62505;46.070;14.492;2023-06-10T04:58:55;23.00;74.70
74153;DHT22;62505;46.070;14.492;2023-06-10T05:01:22;23.00;75.50
74153;DHT22;62505;46.070;14.492;2023-06-10T05:03:51;23.00;74.70
74153;DHT22;62505;46.070;14.492;2023-06-10T05:06:17;23.00;74.60
74153;DHT22;62505;46.070;14.492;2023-06-10T05:08:44;23.00;74.60
74153;DHT22;62505;46.070;14.492;2023-06-10T05:11:11;23.00;74.60
74153;DHT22;62505;46.070;14.492;2023-06-10T05:13:38;23.00;74.50
74153;DHT22;62505;46.070;14.492;2023-06-10T05:16:06;23.00;74.50
74153;DHT22;62505;46.070;14.492;2023-06-10T05:18:33;23.00;74.50
74153;DHT22;62505;46.070;14.492;2023-06-10T05:21:02;23.00;74.50
74153;DHT22;62505;46.070;14.492;2023-06-10T05:23:29;23.00;74.60
74153;DHT22;62505;46.070;14.492;2023-06-10T05:25:56;23.00;74.50
74153;DHT22;62505;46.070;14.492;2023-06-10T05:28:23;23.00;74.50
74153;DHT22;62505;46.070;14.492;2023-06-10T05:30:51;23.00;74.50
74153;DHT22;62505;46.070;14.492;2023-06-10T05:33:18;23.00;74.50
74153;DHT22;62505;46.070;14.492;2023-06-10T05:35:45;23.00;74.50
74153;DHT22;62505;46.070;14.492;2023-06-10T05:38:13;23.00;74.40
74153;DHT22;62505;46.070;14.492;2023-06-10T05:40:40;23.00;74.40
74153;DHT22;62505;46.070;14.492;2023-06-10T05:43:06;23.00;74.40
74153;DHT22;62505;46.070;14.492;2023-06-10T05:45:35;23.00;74.30
74153;DHT22;62505;46.070;14.492;2023-06-10T05:48:02;23.00;74.40
74153;DHT22;62505;46.070;14.492;2023-06-10T05:50:28;23.00;74.30
74153;DHT22;62505;46.070;14.492;2023-06-10T05:52:55;23.00;74.40
74153;DHT22;62505;46.070;14.492;2023-06-10T05:55:24;23.00;74.30
74153;DHT22;62505;46.070;14.492;2023-06-10T05:58:00;23.00;74.30
74153;DHT22;62505;46.070;14.492;2023-06-10T06:00:29;23.00;74.50
74153;DHT22;62505;46.070;14.492;2023-06-10T06:02:56;23.00;75.00
74153;DHT22;62505;46.070;14.492;2023-06-10T06:05:24;23.00;74.90
74153;DHT22;62505;46.070;14.492;2023-06-10T06:07:51;23.00;74.60
74153;DHT22;62505;46.070;14.492;2023-06-10T06:10:18;23.00;74.80
74153;DHT22;62505;46.070;14.492;2023-06-10T06:12:46;23.00;74.50
74153;DHT22;62505;46.070;14.492;2023-06-10T06:15:14;23.00;74.30
74153;DHT22;62505;46.070;14.492;2023-06-10T06:17:41;23.00;74.60
74153;DHT22;62505;46.070;14.492;2023-06-10T06:20:08;23.00;74.50
74153;DHT22;62505;46.070;14.492;2023-06-10T06:22:35;23.00;74.30
74153;DHT22;62505;46.070;14.492;2023-06-10T06:25:02;23.00;74.40
74153;DHT22;62505;46.070;14.492;2023-06-10T06:27:29;23.00;74.40
74153;DHT22;62505;46.070;14.492;2023-06-10T06:29:57;23.00;74.50
74153;DHT22;62505;46.070;14.492;2023-06-10T06:32:25;23.00;74.50
74153;DHT22;62505;46.070;14.492;2023-06-10T06:34:53;23.00;74.50
74153;DHT22;62505;46.070;14.492;2023-06-10T06:37:21;23.00;74.90
74153;DHT22;62505;46.070;14.492;2023-06-10T06:39:50;23.10;74.90
74153;DHT22;62505;46.070;14.492;2023-06-10T06:42:17;23.10;75.30
74153;DHT22;62505;46.070;14.492;2023-06-10T06:44:44;23.10;74.90
74153;DHT22;62505;46.070;14.492;2023-06-10T06:47:12;23.10;74.90
74153;DHT22;62505;46.070;14.492;2023-06-10T06:49:39;23.10;75.40
74153;DHT22;62505;46.070;14.492;2023-06-10T06:52:07;23.10;75.10
74153;DHT22;62505;46.070;14.492;2023-06-10T06:54:34;23.10;75.00
74153;DHT22;62505;46.070;14.492;2023-06-10T06:57:01;23.10;75.10
74153;DHT22;62505;46.070;14.492;2023-06-10T06:59:27;23.10;75.10
74153;DHT22;62505;46.070;14.492;2023-06-10T07:01:54;23.10;75.00
74153;DHT22;62505;46.070;14.492;2023-06-10T07:04:23;23.10;75.00
74153;DHT22;62505;46.070;14.492;2023-06-10T07:06:50;23.10;74.80
74153;DHT22;62505;46.070;14.492;2023-06-10T07:09:16;23.10;74.60
74153;DHT22;62505;46.070;14.492;2023-06-10T07:11:43;23.00;74.50
74153;DHT22;62505;46.070;14.492;2023-06-10T07:14:10;23.00;74.50
74153;DHT22;62505;46.070;14.492;2023-06-10T07:16:37;23.10;74.50
74153;DHT22;62505;46.070;14.492;2023-06-10T07:19:04;23.00;74.40
74153;DHT22;62505;46.070;14.492;2023-06-10T07:21:32;23.10;74.40
74153;DHT22;62505;46.070;14.492;2023-06-10T07:23:59;23.00;75.00
74153;DHT22;62505;46.070;14.492;2023-06-10T07:26:26;23.00;74.30
74153;DHT22;62505;46.070;14.492;2023-06-10T07:28:53;23.00;74.30
74153;DHT22;62505;46.070;14.492;2023-06-10T07:31:20;23.00;74.30
74153;DHT22;62505;46.070;14.492;2023-06-10T07:33:47;23.00;74.20
74153;DHT22;62505;46.070;14.492;2023-06-10T07:36:14;23.00;74.10
74153;DHT22;62505;46.070;14.492;2023-06-10T07:38:42;23.00;74.00
74153;DHT22;62505;46.070;14.492;2023-06-10T07:41:10;23.00;74.00
74153;DHT22;62505;46.070;14.492;2023-06-10T07:43:37;23.00;74.00
74153;DHT22;62505;46.070;14.492;2023-06-10T07:46:04;23.00;74.00
74153;DHT22;62505;46.070;14.492;2023-06-10T07:48:31;23.00;74.80
74153;DHT22;62505;46.070;14.492;2023-06-10T07:50:58;23.00;73.90
74153;DHT22;62505;46.070;14.492;2023-06-10T07:53:25;23.00;73.90
74153;DHT22;62505;46.070;14.492;2023-06-10T07:55:53;23.00;74.70
74153;DHT22;62505;46.070;14.492;2023-06-10T07:58:20;23.00;73.80
74153;DHT22;62505;46.070;14.492;2023-06-10T08:00:48;23.10;73.90
74153;DHT22;62505;46.070;14.492;2023-06-10T08:03:15;23.00;73.80
74153;DHT22;62505;46.070;14.492;2023-06-10T08:05:41;23.00;73.80
74153;DHT22;62505;46.070;14.492;2023-06-10T08:08:08;23.00;74.60
74153;DHT22;62505;46.070;14.492;2023-06-10T08:10:35;23.00;73.70
74153;DHT22;62505;46.070;14.492;2023-06-10T08:13:03;23.10;73.70
74153;DHT22;62505;46.070;14.492;2023-06-10T08:15:30;23.10;73.70
74153;DHT22;62505;46.070;14.492;2023-06-10T08:17:57;23.10;73.70
74153;DHT22;62505;46.070;14.492;2023-06-10T08:20:24;23.00;73.60
74153;DHT22;62505;46.070;14.492;2023-06-10T08:22:51;23.00;73.60
74153;DHT22;62505;46.070;14.492;2023-06-10T08:25:18;23.00;73.70
74153;DHT22;62505;46.070;14.492;2023-06-10T08:27:47;23.10;73.80
74153;DHT22;62505;46.070;14.492;2023-06-10T08:30:15;23.10;73.80
74153;DHT22;62505;46.070;14.492;2023-06-10T08:32:42;23.00;73.70
74153;DHT22;62505;46.070;14.492;2023-06-10T08:35:09;23.00;73.80
74153;DHT22;62505;46.070;14.492;2023-06-10T08:37:36;23.00;73.70
74153;DHT22;62505;46.070;14.492;2023-06-10T08:40:04;23.10;73.80
74153;DHT22;62505;46.070;14.492;2023-06-10T08:42:34;23.00;73.70
74153;DHT22;62505;46.070;14.492;2023-06-10T08:45:03;23.00;73.60
74153;DHT22;62505;46.070;14.492;2023-06-10T08:47:34;23.00;73.60
74153;DHT22;62505;46.070;14.492;2023-06-10T08:50:03;23.10;73.70
74153;DHT22;62505;46.070;14.492;2023-06-10T08:52:35;23.00;73.60
74153;DHT22;62505;46.070;14.492;2023-06-10T08:55:04;23.10;73.80
74153;DHT22;62505;46.070;14.492;2023-06-10T08:57:36;23.00;73.90
74153;DHT22;62505;46.070;14.492;2023-06-10T09:00:05;23.10;74.20
74153;DHT22;62505;46.070;14.492;2023-06-10T09:02:34;23.10;74.00
74153;DHT22;62505;46.070;14.492;2023-06-10T09:05:02;23.20;74.30
74153;DHT22;62505;46.070;14.492;2023-06-10T09:07:30;23.20;74.30
74153;DHT22;62505;46.070;14.492;2023-06-10T09:10:01;23.10;75.00
74153;DHT22;62505;46.070;14.492;2023-06-10T09:12:30;23.20;75.40
74153;DHT22;62505;46.070;14.492;2023-06-10T09:14:57;23.20;76.20
74153;DHT22;62505;46.070;14.492;2023-06-10T09:17:24;23.20;76.40
74153;DHT22;62505;46.070;14.492;2023-06-10T09:19:52;23.20;76.30
74153;DHT22;62505;46.070;14.492;2023-06-10T09:22:21;23.30;76.80
74153;DHT22;62505;46.070;14.492;2023-06-10T09:24:48;23.20;77.90
74153;DHT22;62505;46.070;14.492;2023-06-10T09:27:15;23.30;78.00
74153;DHT22;62505;46.070;14.492;2023-06-10T09:29:46;23.30;78.40
74153;DHT22;62505;46.070;14.492;2023-06-10T09:32:13;23.30;77.70
74153;DHT22;62505;46.070;14.492;2023-06-10T09:34:40;23.30;79.20
74153;DHT22;62505;46.070;14.492;2023-06-10T09:37:08;23.30;80.10
74153;DHT22;62505;46.070;14.492;2023-06-10T09:39:39;23.30;79.60
74153;DHT22;62505;46.070;14.492;2023-06-10T09:42:16;23.30;80.70
74153;DHT22;62505;46.070;14.492;2023-06-10T09:44:49;23.30;80.50
74153;DHT22;62505;46.070;14.492;2023-06-10T09:47:20;23.30;79.90
74153;DHT22;62505;46.070;14.492;2023-06-10T09:49:47;23.30;79.30
74153;DHT22;62505;46.070;14.492;2023-06-10T09:52:21;23.40;79.20
74153;DHT22;62505;46.070;14.492;2023-06-10T09:54:48;23.40;79.60
74153;DHT22;62505;46.070;14.492;2023-06-10T09:57:17;23.40;77.20
74153;DHT22;62505;46.070;14.492;2023-06-10T09:59:44;23.40;77.30
74153;DHT22;62505;46.070;14.492;2023-06-10T10:02:14;23.40;77.30
74153;DHT22;62505;46.070;14.492;2023-06-10T10:04:41;23.30;77.10
74153;DHT22;62505;46.070;14.492;2023-06-10T10:07:08;23.30;76.90
74153;DHT22;62505;46.070;14.492;2023-06-10T10:09:37;23.30;77.00
74153;DHT22;62505;46.070;14.492;2023-06-10T10:12:09;23.30;77.00
74153;DHT22;62505;46.070;14.492;2023-06-10T10:14:37;23.30;77.10
74153;DHT22;62505;46.070;14.492;2023-06-10T10:17:07;23.30;76.80
74153;DHT22;62505;46.070;14.492;2023-06-10T10:19:41;23.30;76.80
74153;DHT22;62505;46.070;14.492;2023-06-10T10:22:13;23.30;76.70
74153;DHT22;62505;46.070;14.492;2023-06-10T10:24:46;23.30;76.90
74153;DHT22;62505;46.070;14.492;2023-06-10T10:27:18;23.30;77.50
74153;DHT22;62505;46.070;14.492;2023-06-10T10:29:48;23.30;77.20
74153;DHT22;62505;46.070;14.492;2023-06-10T10:32:18;23.30;76.80
74153;DHT22;62505;46.070;14.492;2023-06-10T10:34:51;23.40;76.90
74153;DHT22;62505;46.070;14.492;2023-06-10T10:37:20;23.30;77.60
74153;DHT22;62505;46.070;14.492;2023-06-10T10:39:49;23.30;76.70
74153;DHT22;62505;46.070;14.492;2023-06-10T10:42:17;23.30;76.70
74153;DHT22;62505;46.070;14.492;2023-06-10T10:44:45;23.30;76.70
74153;DHT22;62505;46.070;14.492;2023-06-10T10:47:14;23.30;76.70
74153;DHT22;62505;46.070;14.492;2023-06-10T10:49:43;23.30;76.70
74153;DHT22;62505;46.070;14.492;2023-06-10T10:52:12;23.30;76.40
74153;DHT22;62505;46.070;14.492;2023-06-10T10:54:44;23.30;76.50
74153;DHT22;62505;46.070;14.492;2023-06-10T10:57:23;23.30;76.50
74153;DHT22;62505;46.070;14.492;2023-06-10T10:59:55;23.30;76.40
74153;DHT22;62505;46.070;14.492;2023-06-10T11:02:37;23.30;76.40
74153;DHT22;62505;46.070;14.492;2023-06-10T11:05:09;23.30;76.30
74153;DHT22;62505;46.070;14.492;2023-06-10T11:07:37;23.30;76.30
74153;DHT22;62505;46.070;14.492;2023-06-10T11:10:09;23.30;76.30
74153;DHT22;62505;46.070;14.492;2023-06-10T11:12:49;23.30;76.30
74153;DHT22;62505;46.070;14.492;2023-06-10T11:15:18;23.30;76.20
74153;DHT22;62505;46.070;14.492;2023-06-10T11:18:08;23.30;76.00
74153;DHT22;62505;46.070;14.492;2023-06-10T11:20:54;23.30;76.10
74153;DHT22;62505;46.070;14.492;2023-06-10T11:23:41;23.30;75.90
74153;DHT22;62505;46.070;14.492;2023-06-10T11:26:31;23.30;75.90
74153;DHT22;62505;46.070;14.492;2023-06-10T11:29:10;23.30;76.00
74153;DHT22;62505;46.070;14.492;2023-06-10T11:31:40;23.30;75.90
74153;DHT22;62505;46.070;14.492;2023-06-10T11:34:08;23.30;75.90
74153;DHT22;62505;46.070;14.492;2023-06-10T11:36:37;23.30;75.90
74153;DHT22;62505;46.070;14.492;2023-06-10T11:39:06;23.30;75.80
74153;DHT22;62505;46.070;14.492;2023-06-10T11:41:35;23.30;75.70
74153;DHT22;62505;46.070;14.492;2023-06-10T11:44:03;23.30;75.80
74153;DHT22;62505;46.070;14.492;2023-06-10T11:46:31;23.30;75.70
74153;DHT22;62505;46.070;14.492;2023-06-10T11:48:59;23.30;75.80
74153;DHT22;62505;46.070;14.492;2023-06-10T11:51:28;23.30;76.50
74153;DHT22;62505;46.070;14.492;2023-06-10T11:53:56;23.30;75.80
74153;DHT22;62505;46.070;14.492;2023-06-10T11:56:24;23.30;75.90
74153;DHT22;62505;46.070;14.492;2023-06-10T11:58:55;23.30;75.80
74153;DHT22;62505;46.070;14.492;2023-06-10T12:01:23;23.30;75.90
74153;DHT22;62505;46.070;14.492;2023-06-10T12:03:58;23.30;75.90
74153;DHT22;62505;46.070;14.492;2023-06-10T12:06:26;23.30;75.90
74153;DHT22;62505;46.070;14.492;2023-06-10T12:08:54;23.30;75.90
74153;DHT22;62505;46.070;14.492;2023-06-10T12:11:21;23.30;76.10
74153;DHT22;62505;46.070;14.492;2023-06-10T12:13:50;23.30;76.10
74153;DHT22;62505;46.070;14.492;2023-06-10T12:16:17;23.30;76.10
74153;DHT22;62505;46.070;14.492;2023-06-10T12:18:44;23.30;76.20
74153;DHT22;62505;46.070;14.492;2023-06-10T12:21:24;23.30;76.20
74153;DHT22;62505;46.070;14.492;2023-06-10T12:24:01;23.30;76.20
74153;DHT22;62505;46.070;14.492;2023-06-10T12:26:37;23.30;76.20
74153;DHT22;62505;46.070;14.492;2023-06-10T12:29:16;23.30;76.40
74153;DHT22;62505;46.070;14.492;2023-06-10T12:31:58;23.30;76.40
74153;DHT22;62505;46.070;14.492;2023-06-10T12:34:33;23.30;76.40
74153;DHT22;62505;46.070;14.492;2023-06-10T12:37:03;23.30;76.50
74153;DHT22;62505;46.070;14.492;2023-06-10T12:39:31;23.30;76.90
74153;DHT22;62505;46.070;14.492;2023-06-10T12:41:58;23.30;77.00
74153;DHT22;62505;46.070;14.492;2023-06-10T12:44:33;23.30;77.10
74153;DHT22;62505;46.070;14.492;2023-06-10T12:47:00;23.30;76.90
74153;DHT22;62505;46.070;14.492;2023-06-10T12:49:27;23.30;76.90
74153;DHT22;62505;46.070;14.492;2023-06-10T12:51:54;23.30;76.80
74153;DHT22;62505;46.070;14.492;2023-06-10T12:54:22;23.30;76.80
74153;DHT22;62505;46.070;14.492;2023-06-10T12:56:49;23.30;76.80
74153;DHT22;62505;46.070;14.492;2023-06-10T12:59:16;23.30;76.70
74153;DHT22;62505;46.070;14.492;2023-06-10T13:01:49;23.30;76.60
74153;DHT22;62505;46.070;14.492;2023-06-10T13:04:16;23.30;77.50
74153;DHT22;62505;46.070;14.492;2023-06-10T13:06:44;23.30;76.60
74153;DHT22;62505;46.070;14.492;2023-06-10T13:09:12;23.30;76.60
74153;DHT22;62505;46.070;14.492;2023-06-10T13:11:40;23.30;76.50
74153;DHT22;62505;46.070;14.492;2023-06-10T13:14:08;23.30;76.50
74153;DHT22;62505;46.070;14.492;2023-06-10T13:16:35;23.30;76.50
74153;DHT22;62505;46.070;14.492;2023-06-10T13:19:04;23.30;76.30
74153;DHT22;62505;46.070;14.492;2023-06-10T13:21:31;23.30;76.30
74153;DHT22;62505;46.070;14.492;2023-06-10T13:23:58;23.30;76.30
74153;DHT22;62505;46.070;14.492;2023-06-10T13:26:25;23.30;76.20
74153;DHT22;62505;46.070;14.492;2023-06-10T13:28:53;23.30;76.10
74153;DHT22;62505;46.070;14.492;2023-06-10T13:31:23;23.30;76.00
74153;DHT22;62505;46.070;14.492;2023-06-10T13:33:50;23.30;76.10
74153;DHT22;62505;46.070;14.492;2023-06-10T13:36:17;23.30;76.00
74153;DHT22;62505;46.070;14.492;2023-06-10T13:38:44;23.30;76.00
74153;DHT22;62505;46.070;14.492;2023-06-10T13:41:13;23.30;76.00
74153;DHT22;62505;46.070;14.492;2023-06-10T13:43:39;23.30;76.00
74153;DHT22;62505;46.070;14.492;2023-06-10T13:46:08;23.30;75.90
74153;DHT22;62505;46.070;14.492;2023-06-10T13:48:34;23.30;76.00
74153;DHT22;62505;46.070;14.492;2023-06-10T13:51:02;23.30;76.00
74153;DHT22;62505;46.070;14.492;2023-06-10T13:53:28;23.30;76.00
74153;DHT22;62505;46.070;14.492;2023-06-10T13:57:47;23.30;75.30
74153;DHT22;62505;46.070;14.492;2023-06-10T14:00:14;23.30;76.00
74153;DHT22;62505;46.070;14.492;2023-06-10T14:02:41;23.30;76.00
74153;DHT22;62505;46.070;14.492;2023-06-10T14:05:08;23.30;75.90
74153;DHT22;62505;46.070;14.492;2023-06-10T14:07:35;23.30;75.90
74153;DHT22;62505;46.070;14.492;2023-06-10T14:10:04;23.30;76.10
74153;DHT22;62505;46.070;14.492;2023-06-10T14:12:31;23.30;76.10
74153;DHT22;62505;46.070;14.492;2023-06-10T14:14:59;23.30;76.00
74153;DHT22;62505;46.070;14.492;2023-06-10T14:17:26;23.30;76.00
74153;DHT22;62505;46.070;14.492;2023-06-10T14:19:53;23.30;76.10
74153;DHT22;62505;46.070;14.492;2023-06-10T14:22:19;23.30;76.00
74153;DHT22;62505;46.070;14.492;2023-06-10T14:24:46;23.30;76.00
74153;DHT22;62505;46.070;14.492;2023-06-10T14:27:13;23.30;75.90
74153;DHT22;62505;46.070;14.492;2023-06-10T14:29:40;23.30;75.90
74153;DHT22;62505;46.070;14.492;2023-06-10T14:32:09;23.30;75.90
74153;DHT22;62505;46.070;14.492;2023-06-10T14:34:35;23.30;75.90
74153;DHT22;62505;46.070;14.492;2023-06-10T14:37:05;23.30;76.30
74153;DHT22;62505;46.070;14.492;2023-06-10T14:39:32;23.30;76.40
74153;DHT22;62505;46.070;14.492;2023-06-10T14:42:00;23.30;76.40
74153;DHT22;62505;46.070;14.492;2023-06-10T14:44:26;23.30;76.40
74153;DHT22;62505;46.070;14.492;2023-06-10T14:46:53;23.30;76.40
74153;DHT22;62505;46.070;14.492;2023-06-10T14:49:21;23.30;76.20
74153;DHT22;62505;46.070;14.492;2023-06-10T14:51:48;23.30;76.20
74153;DHT22;62505;46.070;14.492;2023-06-10T14:54:15;23.30;76.20
74153;DHT22;62505;46.070;14.492;2023-06-10T14:56:42;23.30;76.00
74153;DHT22;62505;46.070;14.492;2023-06-10T14:59:09;23.30;75.90
74153;DHT22;62505;46.070;14.492;2023-06-10T15:01:36;23.30;75.90
74153;DHT22;62505;46.070;14.492;2023-06-10T15:04:03;23.30;75.90
74153;DHT22;62505;46.070;14.492;2023-06-10T15:06:31;23.30;75.90
74153;DHT22;62505;46.070;14.492;2023-06-10T15:08:58;23.30;75.90
74153;DHT22;62505;46.070;14.492;2023-06-10T15:11:25;23.30;75.70
74153;DHT22;62505;46.070;14.492;2023-06-10T15:13:52;23.30;75.70
74153;DHT22;62505;46.070;14.492;2023-06-10T15:16:19;23.30;75.50
74153;DHT22;62505;46.070;14.492;2023-06-10T15:18:46;23.30;75.60
74153;DHT22;62505;46.070;14.492;2023-06-10T15:21:12;23.30;75.30
74153;DHT22;62505;46.070;14.492;2023-06-10T15:23:41;23.30;75.30